createdAt,value
2019-05-15T00:00:48.138Z,0.00
2019-05-15T00:01:48.763Z,0.00
2019-05-15T00:02:48.161Z,0.00
2019-05-15T00:03:46.354Z,0.00
2019-05-15T00:04:46.320Z,0.00
2019-05-15T00:05:46.309Z,0.00
2019-05-15T00:06:48.535Z,0.00
2019-05-15T00:07:48.415Z,0.00
2019-05-15T00:08:48.045Z,0.00
2019-05-15T00:09:46.224Z,0.00
2019-05-15T00:10:47.818Z,0.00
2019-05-15T00:11:48.171Z,0.00
2019-05-15T00:12:48.463Z,0.00
2019-05-15T00:13:48.218Z,0.00
2019-05-15T00:14:48.310Z,0.00
2019-05-15T00:15:48.009Z,0.00
2019-05-15T00:16:48.165Z,0.00
2019-05-15T00:17:48.327Z,0.00
2019-05-15T00:18:48.079Z,0.00
2019-05-15T00:19:45.998Z,0.00
2019-05-15T00:20:49.371Z,0.00
2019-05-15T00:21:45.956Z,0.00
2019-05-15T00:22:48.248Z,0.00
2019-05-15T00:23:45.916Z,0.00
2019-05-15T00:24:45.889Z,0.00
2019-05-15T00:25:45.868Z,0.00
2019-05-15T00:26:47.931Z,0.00
2019-05-15T00:27:45.827Z,0.00
2019-05-15T00:28:47.879Z,0.00
2019-05-15T00:29:45.786Z,0.00
2019-05-15T00:30:47.995Z,0.00
2019-05-15T00:31:48.343Z,0.00
2019-05-15T00:32:45.716Z,0.00
2019-05-15T00:33:47.859Z,0.00
2019-05-15T00:34:45.673Z,0.00
2019-05-15T00:35:45.653Z,0.00
2019-05-15T00:36:45.837Z,0.00
2019-05-15T00:37:45.608Z,0.00
2019-05-15T00:38:45.589Z,0.00
2019-05-15T00:39:45.789Z,0.00
2019-05-15T00:40:45.549Z,0.00
2019-05-15T00:41:53.323Z,0.00
2019-05-15T00:42:45.503Z,0.00
2019-05-15T00:43:45.489Z,0.00
2019-05-15T00:44:45.460Z,0.00
2019-05-15T00:45:45.765Z,0.00
2019-05-15T00:46:45.414Z,0.00
2019-05-15T00:47:45.396Z,0.00
2019-05-15T00:48:45.378Z,0.00
2019-05-15T00:49:45.354Z,0.00
2019-05-15T00:50:45.329Z,0.00
2019-05-15T00:51:45.311Z,0.00
2019-05-15T00:52:45.285Z,0.00
2019-05-15T00:53:45.267Z,0.00
2019-05-15T00:54:45.241Z,0.00
2019-05-15T00:55:45.221Z,0.00
2019-05-15T00:56:45.200Z,0.00
2019-05-15T00:57:45.184Z,0.00
2019-05-15T00:58:45.158Z,0.00
2019-05-15T00:59:45.131Z,0.00
2019-05-15T01:00:45.115Z,0.00
2019-05-15T01:01:45.101Z,0.00
2019-05-15T01:02:45.068Z,0.00
2019-05-15T01:03:45.051Z,0.00
2019-05-15T01:04:45.027Z,0.00
2019-05-15T01:05:45.006Z,0.00
2019-05-15T01:06:44.980Z,0.00
2019-05-15T01:07:44.960Z,0.00
2019-05-15T01:08:44.939Z,0.00
2019-05-15T01:09:44.914Z,0.00
2019-05-15T01:10:44.893Z,0.00
2019-05-15T01:11:44.874Z,0.00
2019-05-15T01:12:44.854Z,0.00
2019-05-15T01:13:44.829Z,0.00
2019-05-15T01:14:44.806Z,0.00
2019-05-15T01:15:44.789Z,0.00
2019-05-15T01:16:45.073Z,0.00
2019-05-15T01:17:44.750Z,0.00
2019-05-15T01:18:44.723Z,0.00
2019-05-15T01:19:44.697Z,0.00
2019-05-15T01:20:44.674Z,0.00
2019-05-15T01:21:44.654Z,0.00
2019-05-15T01:22:44.638Z,0.00
2019-05-15T01:23:44.610Z,0.00
2019-05-15T01:24:44.594Z,0.00
2019-05-15T01:25:44.565Z,0.00
2019-05-15T01:26:44.548Z,0.00
2019-05-15T01:27:44.525Z,0.00
2019-05-15T01:28:44.503Z,0.00
2019-05-15T01:29:45.322Z,0.00
2019-05-15T01:30:44.465Z,0.00
2019-05-15T01:31:44.442Z,0.00
2019-05-15T01:32:44.414Z,0.00
2019-05-15T01:33:44.391Z,0.00
2019-05-15T01:34:44.370Z,0.00
2019-05-15T01:35:44.352Z,0.00
2019-05-15T01:36:44.330Z,0.00
2019-05-15T01:37:44.305Z,0.00
2019-05-15T01:38:44.285Z,0.00
2019-05-15T01:39:44.264Z,0.00
2019-05-15T01:40:44.244Z,0.00
2019-05-15T01:41:44.240Z,0.00
2019-05-15T01:42:44.196Z,0.00
2019-05-15T01:43:44.174Z,0.00
2019-05-15T01:44:44.150Z,0.00
2019-05-15T01:45:44.134Z,0.00
2019-05-15T01:46:44.109Z,0.00
2019-05-15T01:47:44.089Z,0.00
2019-05-15T01:48:44.064Z,0.00
2019-05-15T01:49:44.041Z,0.00
2019-05-15T01:50:44.023Z,0.00
2019-05-15T01:51:44.002Z,0.00
2019-05-15T01:52:43.979Z,0.00
2019-05-15T01:53:43.958Z,0.00
2019-05-15T01:54:43.933Z,0.00
2019-05-15T01:55:43.912Z,0.00
2019-05-15T01:56:43.895Z,0.00
2019-05-15T01:57:43.866Z,0.00
2019-05-15T01:58:43.847Z,0.00
2019-05-15T01:59:54.795Z,0.00
2019-05-15T02:00:43.802Z,0.00
2019-05-15T02:01:43.784Z,0.00
2019-05-15T02:02:43.762Z,0.00
2019-05-15T02:03:43.736Z,0.00
2019-05-15T02:04:43.720Z,0.00
2019-05-15T02:05:43.691Z,0.00
2019-05-15T02:06:43.675Z,0.00
2019-05-15T02:07:43.651Z,0.00
2019-05-15T02:08:43.631Z,0.00
2019-05-15T02:09:43.606Z,0.00
2019-05-15T02:10:43.584Z,0.00
2019-05-15T02:11:43.560Z,0.00
2019-05-15T02:12:43.541Z,0.00
2019-05-15T02:13:43.518Z,0.00
2019-05-15T02:14:43.502Z,0.00
2019-05-15T02:15:43.476Z,0.00
2019-05-15T02:16:43.456Z,0.00
2019-05-15T02:17:43.436Z,0.00
2019-05-15T02:18:43.409Z,0.00
2019-05-15T02:19:43.389Z,0.00
2019-05-15T02:20:43.363Z,0.00
2019-05-15T02:21:43.346Z,0.00
2019-05-15T02:22:43.322Z,0.00
2019-05-15T02:23:43.299Z,0.00
2019-05-15T02:24:43.278Z,0.00
2019-05-15T02:25:43.257Z,0.00
2019-05-15T02:26:43.234Z,0.00
2019-05-15T02:27:43.213Z,0.00
2019-05-15T02:28:43.193Z,0.00
2019-05-15T02:29:44.583Z,0.00
2019-05-15T02:30:43.146Z,0.00
2019-05-15T02:31:43.130Z,0.00
2019-05-15T02:32:43.108Z,0.00
2019-05-15T02:33:43.081Z,0.00
2019-05-15T02:34:43.061Z,0.00
2019-05-15T02:35:43.036Z,4.00
2019-05-15T02:36:43.013Z,4.00
2019-05-15T02:37:42.991Z,4.00
2019-05-15T02:38:42.970Z,0.00
2019-05-15T02:39:42.945Z,0.00
2019-05-15T02:40:42.921Z,4.00
2019-05-15T02:41:42.899Z,4.00
2019-05-15T02:42:42.879Z,4.00
2019-05-15T02:43:42.854Z,4.00
2019-05-15T02:44:42.833Z,4.00
2019-05-15T02:45:42.815Z,8.00
2019-05-15T02:46:42.786Z,4.00
2019-05-15T02:47:42.769Z,8.00
2019-05-15T02:48:42.744Z,8.00
2019-05-15T02:49:42.726Z,12.00
2019-05-15T02:50:42.704Z,12.00
2019-05-15T02:51:42.681Z,16.00
2019-05-15T02:52:45.478Z,16.00
2019-05-15T02:53:42.632Z,16.00
2019-05-15T02:54:42.605Z,20.00
2019-05-15T02:55:42.577Z,20.00
2019-05-15T02:56:42.564Z,24.00
2019-05-15T02:57:42.541Z,28.00
2019-05-15T02:58:42.513Z,32.00
2019-05-15T02:59:42.495Z,36.00
2019-05-15T03:00:48.204Z,36.00
2019-05-15T03:01:42.459Z,44.00
2019-05-15T03:02:42.427Z,48.00
2019-05-15T03:03:42.413Z,52.00
2019-05-15T03:04:42.380Z,56.00
2019-05-15T03:05:42.366Z,64.00
2019-05-15T03:06:42.343Z,72.00
2019-05-15T03:07:42.317Z,76.00
2019-05-15T03:08:42.305Z,84.00
2019-05-15T03:09:42.266Z,92.00
2019-05-15T03:10:42.246Z,100.00
2019-05-15T03:11:42.220Z,108.00
2019-05-15T03:12:42.201Z,116.00
2019-05-15T03:13:42.182Z,124.00
2019-05-15T03:14:42.151Z,132.00
2019-05-15T03:15:42.127Z,144.00
2019-05-15T03:16:42.113Z,152.00
2019-05-15T03:17:42.092Z,164.00
2019-05-15T03:18:42.061Z,172.00
2019-05-15T03:19:42.041Z,184.00
2019-05-15T03:20:42.031Z,192.00
2019-05-15T03:21:41.995Z,200.00
2019-05-15T03:22:41.974Z,212.00
2019-05-15T03:23:41.950Z,220.00
2019-05-15T03:24:41.920Z,232.00
2019-05-15T03:25:41.898Z,244.00
2019-05-15T03:26:41.876Z,260.00
2019-05-15T03:27:41.857Z,272.00
2019-05-15T03:28:41.830Z,288.00
2019-05-15T03:29:41.812Z,300.00
2019-05-15T03:31:12.027Z,312.00
2019-05-15T03:31:59.039Z,324.00
2019-05-15T03:32:51.754Z,340.00
2019-05-15T03:33:45.430Z,356.00
2019-05-15T03:34:47.662Z,376.00
2019-05-15T03:35:43.733Z,392.00
2019-05-15T03:36:45.300Z,412.00
2019-05-15T03:37:41.632Z,432.00
2019-05-15T03:38:41.601Z,448.00
2019-05-15T03:39:41.583Z,456.00
2019-05-15T03:40:41.566Z,472.00
2019-05-15T03:41:41.541Z,480.00
2019-05-15T03:42:41.515Z,488.00
2019-05-15T03:43:41.506Z,500.00
2019-05-15T03:44:41.466Z,508.00
2019-05-15T03:45:41.444Z,516.00
2019-05-15T03:46:41.423Z,532.00
2019-05-15T03:47:41.404Z,544.00
2019-05-15T03:48:41.373Z,560.00
2019-05-15T03:49:41.348Z,572.00
2019-05-15T03:50:41.331Z,588.00
2019-05-15T03:51:45.667Z,608.00
2019-05-15T03:52:41.294Z,628.00
2019-05-15T03:53:41.264Z,664.00
2019-05-15T03:54:41.239Z,692.00
2019-05-15T03:55:41.219Z,724.00
2019-05-15T03:56:41.193Z,744.00
2019-05-15T03:57:41.169Z,764.00
2019-05-15T03:58:41.146Z,792.00
2019-05-15T03:59:41.129Z,812.00
2019-05-15T04:00:41.102Z,836.00
2019-05-15T04:01:43.930Z,852.00
2019-05-15T04:02:41.062Z,876.00
2019-05-15T04:03:41.034Z,900.00
2019-05-15T04:04:41.007Z,932.00
2019-05-15T04:05:40.991Z,964.00
2019-05-15T04:06:40.966Z,996.00
2019-05-15T04:07:40.936Z,1036.00
2019-05-15T04:08:40.915Z,1064.00
2019-05-15T04:09:40.897Z,1092.00
2019-05-15T04:10:40.896Z,1116.00
2019-05-15T04:11:40.847Z,1136.00
2019-05-15T04:12:41.011Z,1160.00
2019-05-15T04:13:40.810Z,1196.00
2019-05-15T04:14:40.779Z,1228.00
2019-05-15T04:15:40.761Z,1252.00
2019-05-15T04:16:40.734Z,1276.00
2019-05-15T04:17:40.875Z,1320.00
2019-05-15T04:18:40.692Z,1352.00
2019-05-15T04:19:40.669Z,1400.00
2019-05-15T04:20:41.080Z,1456.00
2019-05-15T04:21:44.748Z,1504.00
2019-05-15T04:22:40.773Z,1544.00
2019-05-15T04:23:40.579Z,1576.00
2019-05-15T04:24:40.563Z,1612.00
2019-05-15T04:25:40.543Z,1652.00
2019-05-15T04:26:40.519Z,1704.00
2019-05-15T04:27:40.486Z,1756.00
2019-05-15T04:28:41.683Z,1800.00
2019-05-15T04:29:40.436Z,1836.00
2019-05-15T04:30:40.419Z,1856.00
2019-05-15T04:31:54.473Z,1876.00
2019-05-15T04:32:40.646Z,1872.00
2019-05-15T04:33:40.533Z,1856.00
2019-05-15T04:34:40.329Z,1868.00
2019-05-15T04:35:40.662Z,1912.00
2019-05-15T04:36:44.281Z,1976.00
2019-05-15T04:37:41.126Z,2064.00
2019-05-15T04:38:40.250Z,2148.00
2019-05-15T04:39:40.303Z,2208.00
2019-05-15T04:40:40.260Z,2272.00
2019-05-15T04:41:40.172Z,2328.00
2019-05-15T04:42:40.246Z,2372.00
2019-05-15T04:43:44.864Z,2416.00
2019-05-15T04:44:40.100Z,2488.00
2019-05-15T04:45:40.101Z,2552.00
2019-05-15T04:46:40.050Z,2612.00
2019-05-15T04:47:40.322Z,2644.00
2019-05-15T04:48:40.355Z,2644.00
2019-05-15T04:49:39.985Z,2648.00
2019-05-15T04:50:40.448Z,2676.00
2019-05-15T04:51:39.940Z,2732.00
2019-05-15T04:52:43.230Z,2780.00
2019-05-15T04:53:40.115Z,2824.00
2019-05-15T04:54:40.329Z,2896.00
2019-05-15T04:55:40.667Z,2984.00
2019-05-15T04:56:40.259Z,3112.00
2019-05-15T04:57:40.830Z,3252.00
2019-05-15T04:58:39.914Z,3396.00
2019-05-15T04:59:39.758Z,3532.00
2019-05-15T05:00:40.088Z,3620.00
2019-05-15T05:01:40.372Z,3672.00
2019-05-15T05:02:40.654Z,3732.00
2019-05-15T05:03:39.948Z,3792.00
2019-05-15T05:04:39.648Z,3844.00
2019-05-15T05:05:39.629Z,3896.00
2019-05-15T05:06:39.602Z,3924.00
2019-05-15T05:07:39.910Z,3948.00
2019-05-15T05:08:40.103Z,3988.00
2019-05-15T05:09:39.538Z,4024.00
2019-05-15T05:10:39.749Z,4052.00
2019-05-15T05:11:39.493Z,4092.00
2019-05-15T05:12:42.009Z,4096.00
2019-05-15T05:13:39.706Z,4092.00
2019-05-15T05:14:39.427Z,4080.00
2019-05-15T05:15:39.403Z,4060.00
2019-05-15T05:16:39.639Z,4048.00
2019-05-15T05:17:39.563Z,4036.00
2019-05-15T05:18:41.341Z,4040.00
2019-05-15T05:19:40.238Z,4088.00
2019-05-15T05:20:39.291Z,4172.00
2019-05-15T05:21:39.265Z,4244.00
2019-05-15T05:22:39.706Z,4324.00
2019-05-15T05:23:39.224Z,4364.00
2019-05-15T05:24:39.206Z,4380.00
2019-05-15T05:25:39.181Z,4384.00
2019-05-15T05:26:39.157Z,4368.00
2019-05-15T05:27:39.138Z,4336.00
2019-05-15T05:28:39.112Z,4300.00
2019-05-15T05:29:39.091Z,4280.00
2019-05-15T05:30:39.068Z,4244.00
2019-05-15T05:31:39.363Z,4204.00
2019-05-15T05:32:39.371Z,4220.00
2019-05-15T05:33:39.053Z,4248.00
2019-05-15T05:34:39.297Z,4272.00
2019-05-15T05:35:38.960Z,4304.00
2019-05-15T05:36:38.937Z,4364.00
2019-05-15T05:37:39.306Z,4404.00
2019-05-15T05:38:38.989Z,4428.00
2019-05-15T05:39:39.521Z,4416.00
2019-05-15T05:40:38.851Z,4384.00
2019-05-15T05:41:39.278Z,4376.00
2019-05-15T05:42:39.206Z,4360.00
2019-05-15T05:43:38.782Z,4348.00
2019-05-15T05:44:42.521Z,4364.00
2019-05-15T05:45:38.741Z,4372.00
2019-05-15T05:46:39.742Z,4412.00
2019-05-15T05:47:38.701Z,4432.00
2019-05-15T05:48:38.677Z,4452.00
2019-05-15T05:49:38.654Z,4504.00
2019-05-15T05:50:38.764Z,4576.00
2019-05-15T05:51:38.833Z,4656.00
2019-05-15T05:52:39.226Z,4720.00
2019-05-15T05:53:38.634Z,4812.00
2019-05-15T05:54:38.541Z,4928.00
2019-05-15T05:55:38.587Z,5040.00
2019-05-15T05:56:38.498Z,5176.00
2019-05-15T05:57:38.598Z,5300.00
2019-05-15T05:58:39.110Z,5436.00
2019-05-15T05:59:38.787Z,5604.00
2019-05-15T06:00:39.339Z,5756.00
2019-05-15T06:01:43.676Z,5924.00
2019-05-15T06:02:46.921Z,6088.00
2019-05-15T06:03:38.797Z,6256.00
2019-05-15T06:04:38.509Z,6472.00
2019-05-15T06:05:38.924Z,6668.00
2019-05-15T06:06:38.586Z,6860.00
2019-05-15T06:07:38.840Z,7060.00
2019-05-15T06:08:38.971Z,7268.00
2019-05-15T06:09:38.210Z,7420.00
2019-05-15T06:10:38.733Z,7564.00
2019-05-15T06:11:38.207Z,7696.00
2019-05-15T06:12:38.853Z,7816.00
2019-05-15T06:13:38.414Z,7948.00
2019-05-15T06:14:38.194Z,8056.00
2019-05-15T06:15:38.273Z,8160.00
2019-05-15T06:16:38.716Z,8200.00
2019-05-15T06:17:39.218Z,8172.00
2019-05-15T06:18:38.885Z,8180.00
2019-05-15T06:19:38.581Z,8148.00
2019-05-15T06:20:39.526Z,8112.00
2019-05-15T06:21:46.651Z,8076.00
2019-05-15T06:22:38.775Z,8000.00
2019-05-15T06:23:44.013Z,7904.00
2019-05-15T06:24:38.045Z,7768.00
2019-05-15T06:25:39.095Z,7624.00
2019-05-15T06:26:38.652Z,7504.00
2019-05-15T06:27:39.086Z,7440.00
2019-05-15T06:28:39.455Z,7348.00
2019-05-15T06:29:38.032Z,7236.00
2019-05-15T06:30:38.593Z,7096.00
2019-05-15T06:31:38.809Z,6952.00
2019-05-15T06:32:39.760Z,6716.00
2019-05-15T06:33:38.370Z,6448.00
2019-05-15T06:34:38.099Z,6184.00
2019-05-15T06:35:39.448Z,5892.00
2019-05-15T06:36:39.270Z,5620.00
2019-05-15T06:37:39.498Z,5352.00
2019-05-15T06:38:39.419Z,5112.00
2019-05-15T06:39:39.085Z,4936.00
2019-05-15T06:40:39.498Z,4936.00
2019-05-15T06:41:39.045Z,5180.00
2019-05-15T06:42:39.393Z,5700.00
2019-05-15T06:43:38.968Z,6540.00
2019-05-15T06:44:38.833Z,7592.00
2019-05-15T06:45:37.999Z,8364.00
2019-05-15T06:46:39.320Z,8892.00
2019-05-15T06:47:39.530Z,9176.00
2019-05-15T06:48:37.998Z,9268.00
2019-05-15T06:49:37.846Z,9288.00
2019-05-15T06:50:38.282Z,9400.00
2019-05-15T06:51:37.886Z,9648.00
2019-05-15T06:52:38.018Z,10092.00
2019-05-15T06:53:38.485Z,10764.00
2019-05-15T06:54:37.800Z,11264.00
2019-05-15T06:55:38.903Z,11788.00
2019-05-15T06:56:38.883Z,11868.00
2019-05-15T06:57:39.561Z,12064.00
2019-05-15T06:58:38.591Z,12180.00
2019-05-15T06:59:38.940Z,12196.00
2019-05-15T07:00:39.113Z,12356.00
2019-05-15T07:01:38.561Z,12584.00
2019-05-15T07:02:38.215Z,12616.00
2019-05-15T07:03:39.286Z,12424.00
2019-05-15T07:04:38.422Z,12180.00
2019-05-15T07:05:38.596Z,11960.00
2019-05-15T07:06:38.116Z,11868.00
2019-05-15T07:07:38.532Z,11728.00
2019-05-15T07:08:38.255Z,11668.00
2019-05-15T07:09:38.066Z,11660.00
2019-05-15T07:10:37.749Z,11760.00
2019-05-15T07:11:38.760Z,11768.00
2019-05-15T07:12:39.092Z,11456.00
2019-05-15T07:13:38.284Z,11092.00
2019-05-15T07:14:37.996Z,10824.00
2019-05-15T07:15:38.476Z,10928.00
2019-05-15T07:16:38.963Z,11212.00
2019-05-15T07:17:38.935Z,11700.00
2019-05-15T07:18:38.946Z,12140.00
2019-05-15T07:19:39.246Z,12492.00
2019-05-15T07:20:39.128Z,12648.00
2019-05-15T07:21:38.799Z,13200.00
2019-05-15T07:22:39.241Z,13548.00
2019-05-15T07:23:38.686Z,13692.00
2019-05-15T07:24:38.351Z,13448.00
2019-05-15T07:25:39.063Z,13008.00
2019-05-15T07:26:38.964Z,12324.00
2019-05-15T07:27:38.735Z,11436.00
2019-05-15T07:28:37.985Z,10312.00
2019-05-15T07:29:38.590Z,9696.00
2019-05-15T07:30:40.822Z,9352.00
2019-05-15T07:31:38.406Z,9076.00
2019-05-15T07:32:39.384Z,8892.00
2019-05-15T07:33:42.544Z,8780.00
2019-05-15T07:34:37.883Z,8984.00
2019-05-15T07:35:38.439Z,9620.00
2019-05-15T07:36:38.788Z,10304.00
2019-05-15T07:37:38.713Z,10584.00
2019-05-15T07:38:38.933Z,11076.00
2019-05-15T07:39:38.168Z,11932.00
2019-05-15T07:40:39.075Z,12432.00
2019-05-15T07:41:36.394Z,12812.00
2019-05-15T07:42:38.602Z,13688.00
2019-05-15T07:43:38.426Z,15976.00
2019-05-15T07:44:38.604Z,17440.00
2019-05-15T07:45:42.554Z,17568.00
2019-05-15T07:46:38.262Z,17376.00
2019-05-15T07:47:38.625Z,17664.00
2019-05-15T07:48:38.439Z,18656.00
2019-05-15T07:49:38.634Z,18688.00
2019-05-15T07:50:38.708Z,19616.00
2019-05-15T07:51:38.190Z,19808.00
2019-05-15T07:52:36.198Z,19136.00
2019-05-15T07:53:38.432Z,18112.00
2019-05-15T07:54:38.169Z,18368.00
2019-05-15T07:55:39.088Z,18976.00
2019-05-15T07:56:38.086Z,21632.00
2019-05-15T07:57:38.860Z,21216.00
2019-05-15T07:58:38.425Z,22368.00
2019-05-15T07:59:38.509Z,38304.00
2019-05-15T08:00:36.075Z,34144.00
2019-05-15T08:01:38.427Z,47840.00
2019-05-15T08:02:37.989Z,30816.00
2019-05-15T08:03:38.131Z,38496.00
2019-05-15T08:04:37.904Z,59776.00
2019-05-15T08:05:38.203Z,43744.00
2019-05-15T08:06:38.618Z,36096.00
2019-05-15T08:07:38.610Z,23648.00
2019-05-15T08:08:35.957Z,19648.00
2019-05-15T08:09:35.942Z,22112.00
2019-05-15T08:10:35.932Z,24032.00
2019-05-15T08:11:35.912Z,20384.00
2019-05-15T08:12:35.896Z,20000.00
2019-05-15T08:13:38.184Z,22400.00
2019-05-15T08:14:38.665Z,18528.00
2019-05-15T08:15:37.977Z,16332.00
2019-05-15T08:16:35.856Z,19072.00
2019-05-15T08:17:35.838Z,18976.00
2019-05-15T08:18:35.822Z,16448.00
2019-05-15T08:19:38.209Z,15788.00
2019-05-15T08:20:38.338Z,19552.00
2019-05-15T08:21:38.305Z,20256.00
2019-05-15T08:22:38.052Z,21632.00
2019-05-15T08:23:35.758Z,30080.00
2019-05-15T08:24:35.747Z,26368.00
2019-05-15T08:25:35.727Z,46240.00
2019-05-15T08:26:37.807Z,48640.00
2019-05-15T08:27:38.088Z,32800.00
2019-05-15T08:28:38.073Z,21344.00
2019-05-15T08:29:38.186Z,16784.00
2019-05-15T08:30:35.669Z,16936.00
2019-05-15T08:31:35.661Z,15372.00
2019-05-15T08:32:35.657Z,13984.00
2019-05-15T08:33:35.636Z,13092.00
2019-05-15T08:34:35.620Z,11908.00
2019-05-15T08:35:35.611Z,14640.00
2019-05-15T08:36:35.600Z,11664.00
2019-05-15T08:37:35.689Z,11908.00
2019-05-15T08:38:38.132Z,10864.00
2019-05-15T08:39:38.024Z,11020.00
2019-05-15T08:40:40.749Z,11460.00
2019-05-15T08:41:35.536Z,11120.00
2019-05-15T08:42:35.527Z,10108.00
2019-05-15T08:43:35.514Z,10896.00
2019-05-15T08:44:35.498Z,9892.00
2019-05-15T08:45:35.500Z,10064.00
2019-05-15T08:46:35.483Z,10700.00
2019-05-15T08:47:35.465Z,11696.00
2019-05-15T08:48:35.451Z,12320.00
2019-05-15T08:49:40.650Z,13184.00
2019-05-15T08:50:35.425Z,13540.00
2019-05-15T08:51:37.976Z,13764.00
2019-05-15T08:52:35.400Z,12700.00
2019-05-15T08:53:37.818Z,12096.00
2019-05-15T08:54:38.161Z,13956.00
2019-05-15T08:55:35.362Z,15512.00
2019-05-15T08:56:35.351Z,12092.00
2019-05-15T08:57:38.131Z,12028.00
2019-05-15T08:58:35.327Z,11844.00
2019-05-15T08:59:35.316Z,12460.00
2019-05-15T09:00:35.324Z,12936.00
2019-05-15T09:01:35.286Z,14236.00
2019-05-15T09:02:35.274Z,13780.00
2019-05-15T09:03:35.261Z,21600.00
2019-05-15T09:04:35.405Z,17248.00
2019-05-15T09:05:35.242Z,15640.00
2019-05-15T09:06:35.223Z,19648.00
2019-05-15T09:07:35.215Z,16108.00
2019-05-15T09:08:35.199Z,15000.00
2019-05-15T09:09:35.186Z,14004.00
2019-05-15T09:10:35.176Z,14212.00
2019-05-15T09:11:35.178Z,15028.00
2019-05-15T09:12:35.148Z,19168.00
2019-05-15T09:13:35.141Z,18240.00
2019-05-15T09:14:35.127Z,38880.00
2019-05-15T09:15:35.113Z,54080.00
2019-05-15T09:16:35.105Z,40160.00
2019-05-15T09:17:35.091Z,20224.00
2019-05-15T09:18:35.077Z,25824.00
2019-05-15T09:19:35.059Z,23136.00
2019-05-15T09:20:35.048Z,18112.00
2019-05-15T09:21:35.031Z,31488.00
2019-05-15T09:22:35.020Z,27328.00
2019-05-15T09:23:35.010Z,26656.00
2019-05-15T09:24:35.014Z,40576.00
2019-05-15T09:25:34.985Z,30528.00
2019-05-15T09:26:35.530Z,18176.00
2019-05-15T09:27:34.961Z,24704.00
2019-05-15T09:28:34.952Z,20832.00
2019-05-15T09:29:34.940Z,22400.00
2019-05-15T09:30:34.925Z,22240.00
2019-05-15T09:31:34.913Z,27488.00
2019-05-15T09:32:34.905Z,26656.00
2019-05-15T09:33:34.897Z,25824.00
2019-05-15T09:34:47.860Z,28800.00
2019-05-15T09:35:34.871Z,27168.00
2019-05-15T09:36:34.867Z,25152.00
2019-05-15T09:37:34.860Z,23456.00
2019-05-15T09:38:34.835Z,22848.00
2019-05-15T09:39:34.827Z,20928.00
2019-05-15T09:40:45.164Z,20160.00
2019-05-15T09:41:34.805Z,20576.00
2019-05-15T09:42:34.793Z,21440.00
2019-05-15T09:43:34.787Z,21696.00
2019-05-15T09:44:34.773Z,21696.00
2019-05-15T09:45:34.761Z,21120.00
2019-05-15T09:46:34.758Z,19552.00
2019-05-15T09:47:34.748Z,18944.00
2019-05-15T09:48:34.736Z,19040.00
2019-05-15T09:49:34.723Z,18432.00
2019-05-15T09:50:34.711Z,18784.00
2019-05-15T09:51:34.701Z,18624.00
2019-05-15T09:52:34.688Z,19136.00
2019-05-15T09:53:34.675Z,18880.00
2019-05-15T09:54:34.666Z,19232.00
2019-05-15T09:55:34.656Z,19456.00
2019-05-15T09:56:34.651Z,19328.00
2019-05-15T09:57:34.651Z,20544.00
2019-05-15T09:58:34.625Z,23360.00
2019-05-15T09:59:34.615Z,23072.00
2019-05-15T10:00:34.609Z,22592.00
2019-05-15T10:01:34.645Z,24736.00
2019-05-15T10:02:34.584Z,24224.00
2019-05-15T10:03:34.573Z,23200.00
2019-05-15T10:04:34.573Z,20992.00
2019-05-15T10:05:34.551Z,19680.00
2019-05-15T10:06:34.539Z,19008.00
2019-05-15T10:07:34.533Z,18720.00
2019-05-15T10:08:34.520Z,18432.00
2019-05-15T10:09:34.507Z,18112.00
2019-05-15T10:10:34.497Z,18016.00
2019-05-15T10:11:34.491Z,18336.00
2019-05-15T10:12:35.361Z,19392.00
2019-05-15T10:13:34.467Z,20480.00
2019-05-15T10:14:34.459Z,20736.00
2019-05-15T10:15:34.449Z,21984.00
2019-05-15T10:16:34.445Z,23616.00
2019-05-15T10:17:34.429Z,23232.00
2019-05-15T10:18:34.415Z,28448.00
2019-05-15T10:19:34.410Z,32768.00
2019-05-15T10:20:34.397Z,30880.00
2019-05-15T10:21:34.387Z,26400.00
2019-05-15T10:22:34.383Z,30848.00
2019-05-15T10:23:34.388Z,32960.00
2019-05-15T10:24:34.356Z,25408.00
2019-05-15T10:25:34.351Z,23968.00
2019-05-15T10:26:34.339Z,20352.00
2019-05-15T10:27:34.326Z,19328.00
2019-05-15T10:28:34.323Z,17952.00
2019-05-15T10:29:34.308Z,15872.00
2019-05-15T10:30:34.292Z,14584.00
2019-05-15T10:31:34.286Z,14212.00
2019-05-15T10:32:34.285Z,14668.00
2019-05-15T10:33:34.268Z,16220.00
2019-05-15T10:34:34.258Z,19232.00
2019-05-15T10:35:34.250Z,25600.00
2019-05-15T10:36:34.239Z,31616.00
2019-05-15T10:37:34.230Z,47872.00
2019-05-15T10:38:34.220Z,23456.00
2019-05-15T10:39:34.206Z,20032.00
2019-05-15T10:40:34.199Z,17312.00
2019-05-15T10:41:34.187Z,20448.00
2019-05-15T10:42:34.182Z,18560.00
2019-05-15T10:43:34.172Z,17824.00
2019-05-15T10:44:34.160Z,17344.00
2019-05-15T10:45:34.152Z,17408.00
2019-05-15T10:46:34.140Z,18400.00
2019-05-15T10:47:34.128Z,24160.00
2019-05-15T10:48:34.119Z,24288.00
2019-05-15T10:49:34.109Z,22976.00
2019-05-15T10:50:34.100Z,21856.00
2019-05-15T10:51:34.093Z,21376.00
2019-05-15T10:52:34.080Z,23264.00
2019-05-15T10:53:34.068Z,23072.00
2019-05-15T10:54:34.061Z,19584.00
2019-05-15T10:55:34.060Z,16100.00
2019-05-15T10:56:34.040Z,13804.00
2019-05-15T10:57:34.039Z,12504.00
2019-05-15T10:58:34.018Z,11784.00
2019-05-15T10:59:34.012Z,11508.00
2019-05-15T11:00:33.999Z,11344.00
2019-05-15T11:01:33.988Z,11000.00
2019-05-15T11:02:33.981Z,11144.00
2019-05-15T11:03:35.076Z,11684.00
2019-05-15T11:04:33.958Z,12464.00
2019-05-15T11:05:44.633Z,13920.00
2019-05-15T11:06:33.942Z,14988.00
2019-05-15T11:07:33.926Z,15532.00
2019-05-15T11:08:33.916Z,15200.00
2019-05-15T11:09:33.907Z,14592.00
2019-05-15T11:10:33.898Z,14280.00
2019-05-15T11:11:33.894Z,14460.00
2019-05-15T11:12:33.878Z,14668.00
2019-05-15T11:13:33.870Z,14352.00
2019-05-15T11:14:33.857Z,13972.00
2019-05-15T11:15:33.845Z,13596.00
2019-05-15T11:16:33.852Z,13492.00
2019-05-15T11:17:33.823Z,13568.00
2019-05-15T11:18:33.814Z,13368.00
2019-05-15T11:19:36.364Z,13220.00
2019-05-15T11:20:33.797Z,13444.00
2019-05-15T11:21:33.780Z,13708.00
2019-05-15T11:22:33.787Z,14092.00
2019-05-15T11:23:33.759Z,14976.00
2019-05-15T11:24:33.764Z,14856.00
2019-05-15T11:25:33.738Z,14940.00
2019-05-15T11:26:33.763Z,14900.00
2019-05-15T11:27:33.714Z,14996.00
2019-05-15T11:28:33.711Z,14968.00
2019-05-15T11:29:33.692Z,14656.00
2019-05-15T11:30:33.684Z,14112.00
2019-05-15T11:31:33.671Z,13644.00
2019-05-15T11:32:33.665Z,13588.00
2019-05-15T11:33:33.656Z,13824.00
2019-05-15T11:34:33.643Z,13852.00
2019-05-15T11:35:33.633Z,13436.00
2019-05-15T11:36:33.620Z,12876.00
2019-05-15T11:37:33.674Z,12380.00
2019-05-15T11:38:33.593Z,12080.00
2019-05-15T11:39:33.589Z,11968.00
2019-05-15T11:40:33.573Z,12316.00
2019-05-15T11:41:33.566Z,13388.00
2019-05-15T11:42:33.548Z,15944.00
2019-05-15T11:43:33.539Z,17888.00
2019-05-15T11:44:33.529Z,17984.00
2019-05-15T11:45:33.514Z,17728.00
2019-05-15T11:46:33.507Z,17220.00
2019-05-15T11:47:33.494Z,13168.00
2019-05-15T11:48:33.483Z,12688.00
2019-05-15T11:49:33.472Z,14112.00
2019-05-15T11:50:33.467Z,14024.00
2019-05-15T11:51:33.453Z,14728.00
2019-05-15T11:52:36.394Z,14624.00
2019-05-15T11:53:33.430Z,15208.00
2019-05-15T11:54:33.421Z,16172.00
2019-05-15T11:55:33.406Z,15848.00
2019-05-15T11:56:33.604Z,16320.00
2019-05-15T11:57:42.619Z,16520.00
2019-05-15T11:58:33.374Z,16256.00
2019-05-15T11:59:33.568Z,16356.00
2019-05-15T12:00:33.347Z,16768.00
2019-05-15T12:01:33.337Z,17504.00
2019-05-15T12:02:33.373Z,17568.00
2019-05-15T12:03:33.314Z,17248.00
2019-05-15T12:04:34.334Z,17216.00
2019-05-15T12:05:33.294Z,17472.00
2019-05-15T12:06:33.282Z,17440.00
2019-05-15T12:07:33.266Z,16904.00
2019-05-15T12:08:33.262Z,16596.00
2019-05-15T12:09:33.254Z,15452.00
2019-05-15T12:10:33.235Z,14836.00
2019-05-15T12:11:37.014Z,14924.00
2019-05-15T12:12:33.217Z,15144.00
2019-05-15T12:13:33.202Z,16312.00
2019-05-15T12:14:33.188Z,17472.00